sensor_id;sensor_type;location;lat;lon;timestamp;temperature;humidity
14210;DHT22;7188;56.070;12.698;2022-07-23T00:01:16;15.40;99.90
14210;DHT22;7188;56.070;12.698;2022-07-23T00:03:42;15.40;99.90
14210;DHT22;7188;56.070;12.698;2022-07-23T00:06:07;15.40;99.90
14210;DHT22;7188;56.070;12.698;2022-07-23T00:08:33;15.40;99.90
14210;DHT22;7188;56.070;12.698;2022-07-23T00:10:59;15.40;99.90
14210;DHT22;7188;56.070;12.698;2022-07-23T00:13:26;15.30;99.90
14210;DHT22;7188;56.070;12.698;2022-07-23T00:15:51;15.30;99.90
14210;DHT22;7188;56.070;12.698;2022-07-23T00:18:17;15.40;99.90
14210;DHT22;7188;56.070;12.698;2022-07-23T00:20:43;15.40;99.90
14210;DHT22;7188;56.070;12.698;2022-07-23T00:23:08;15.40;99.90
14210;DHT22;7188;56.070;12.698;2022-07-23T00:25:34;15.30;99.90
14210;DHT22;7188;56.070;12.698;2022-07-23T00:28:01;15.30;99.90
14210;DHT22;7188;56.070;12.698;2022-07-23T00:30:26;15.30;99.90
14210;DHT22;7188;56.070;12.698;2022-07-23T00:32:56;15.30;99.90
14210;DHT22;7188;56.070;12.698;2022-07-23T00:35:23;15.30;99.90
14210;DHT22;7188;56.070;12.698;2022-07-23T00:37:50;15.30;99.90
14210;DHT22;7188;56.070;12.698;2022-07-23T00:40:16;15.30;99.90
14210;DHT22;7188;56.070;12.698;2022-07-23T00:42:42;15.30;99.90
14210;DHT22;7188;56.070;12.698;2022-07-23T00:45:08;15.30;99.90
14210;DHT22;7188;56.070;12.698;2022-07-23T00:47:34;15.30;99.90
14210;DHT22;7188;56.070;12.698;2022-07-23T00:50:00;15.20;99.90
14210;DHT22;7188;56.070;12.698;2022-07-23T00:52:26;15.30;99.90
14210;DHT22;7188;56.070;12.698;2022-07-23T00:54:52;15.20;99.90
14210;DHT22;7188;56.070;12.698;2022-07-23T00:57:18;15.20;99.90
14210;DHT22;7188;56.070;12.698;2022-07-23T00:59:44;15.30;99.90
14210;DHT22;7188;56.070;12.698;2022-07-23T01:02:10;15.30;99.90
14210;DHT22;7188;56.070;12.698;2022-07-23T01:04:36;15.20;99.90
14210;DHT22;7188;56.070;12.698;2022-07-23T01:07:02;15.20;99.90
14210;DHT22;7188;56.070;12.698;2022-07-23T01:09:27;15.20;99.90
14210;DHT22;7188;56.070;12.698;2022-07-23T01:11:54;15.20;99.90
14210;DHT22;7188;56.070;12.698;2022-07-23T01:14:21;15.20;99.90
14210;DHT22;7188;56.070;12.698;2022-07-23T01:16:48;15.20;99.90
14210;DHT22;7188;56.070;12.698;2022-07-23T01:19:15;15.30;99.90
14210;DHT22;7188;56.070;12.698;2022-07-23T01:21:43;15.30;99.90
14210;DHT22;7188;56.070;12.698;2022-07-23T01:24:10;15.30;99.90
14210;DHT22;7188;56.070;12.698;2022-07-23T01:26:37;15.30;99.90
14210;DHT22;7188;56.070;12.698;2022-07-23T01:29:04;15.30;99.90
14210;DHT22;7188;56.070;12.698;2022-07-23T01:31:30;15.30;99.90
14210;DHT22;7188;56.070;12.698;2022-07-23T01:33:56;15.30;99.90
14210;DHT22;7188;56.070;12.698;2022-07-23T01:36:22;15.30;99.90
14210;DHT22;7188;56.070;12.698;2022-07-23T01:38:48;15.30;99.90
14210;DHT22;7188;56.070;12.698;2022-07-23T01:41:14;15.30;99.90
14210;DHT22;7188;56.070;12.698;2022-07-23T01:43:39;15.30;99.90
14210;DHT22;7188;56.070;12.698;2022-07-23T01:46:06;15.30;99.90
14210;DHT22;7188;56.070;12.698;2022-07-23T01:48:31;15.30;99.90
14210;DHT22;7188;56.070;12.698;2022-07-23T01:50:57;15.30;99.90
14210;DHT22;7188;56.070;12.698;2022-07-23T01:53:23;15.30;99.90
14210;DHT22;7188;56.070;12.698;2022-07-23T01:55:48;15.30;99.90
14210;DHT22;7188;56.070;12.698;2022-07-23T01:58:14;15.30;99.90
14210;DHT22;7188;56.070;12.698;2022-07-23T02:00:40;15.30;99.90
14210;DHT22;7188;56.070;12.698;2022-07-23T02:03:06;15.30;99.90
14210;DHT22;7188;56.070;12.698;2022-07-23T02:05:31;15.30;99.90
14210;DHT22;7188;56.070;12.698;2022-07-23T02:07:58;15.30;99.90
14210;DHT22;7188;56.070;12.698;2022-07-23T02:10:24;15.30;99.90
14210;DHT22;7188;56.070;12.698;2022-07-23T02:12:50;15.30;99.90
14210;DHT22;7188;56.070;12.698;2022-07-23T02:15:16;15.30;99.90
14210;DHT22;7188;56.070;12.698;2022-07-23T02:17:42;15.30;99.90
14210;DHT22;7188;56.070;12.698;2022-07-23T02:20:09;15.30;99.90
14210;DHT22;7188;56.070;12.698;2022-07-23T02:22:35;15.30;99.90
14210;DHT22;7188;56.070;12.698;2022-07-23T02:25:02;15.30;99.90
14210;DHT22;7188;56.070;12.698;2022-07-23T02:27:28;15.30;99.90
14210;DHT22;7188;56.070;12.698;2022-07-23T02:29:54;15.30;99.90
14210;DHT22;7188;56.070;12.698;2022-07-23T02:32:19;15.30;99.90
14210;DHT22;7188;56.070;12.698;2022-07-23T02:34:47;15.30;99.90
14210;DHT22;7188;56.070;12.698;2022-07-23T02:37:13;15.30;99.90
14210;DHT22;7188;56.070;12.698;2022-07-23T02:39:39;15.30;99.90
14210;DHT22;7188;56.070;12.698;2022-07-23T02:42:05;15.30;99.90
14210;DHT22;7188;56.070;12.698;2022-07-23T02:44:31;15.30;99.90
14210;DHT22;7188;56.070;12.698;2022-07-23T02:46:57;15.30;99.90
14210;DHT22;7188;56.070;12.698;2022-07-23T02:49:22;15.30;99.90
14210;DHT22;7188;56.070;12.698;2022-07-23T02:51:48;15.20;99.90
14210;DHT22;7188;56.070;12.698;2022-07-23T02:54:13;15.20;99.90
14210;DHT22;7188;56.070;12.698;2022-07-23T02:56:39;15.20;99.90
14210;DHT22;7188;56.070;12.698;2022-07-23T02:59:05;15.20;99.90
14210;DHT22;7188;56.070;12.698;2022-07-23T03:01:30;15.20;99.90
14210;DHT22;7188;56.070;12.698;2022-07-23T03:03:56;15.20;99.90
14210;DHT22;7188;56.070;12.698;2022-07-23T03:06:22;15.20;99.90
14210;DHT22;7188;56.070;12.698;2022-07-23T03:08:47;15.20;99.90
14210;DHT22;7188;56.070;12.698;2022-07-23T03:11:13;15.20;99.90
14210;DHT22;7188;56.070;12.698;2022-07-23T03:13:40;15.20;99.90
14210;DHT22;7188;56.070;12.698;2022-07-23T03:16:06;15.20;99.90
14210;DHT22;7188;56.070;12.698;2022-07-23T03:18:32;15.20;99.90
14210;DHT22;7188;56.070;12.698;2022-07-23T03:20:58;15.20;99.90
14210;DHT22;7188;56.070;12.698;2022-07-23T03:23:24;15.20;99.90
14210;DHT22;7188;56.070;12.698;2022-07-23T03:25:49;15.20;99.90
14210;DHT22;7188;56.070;12.698;2022-07-23T03:28:16;15.20;99.90
14210;DHT22;7188;56.070;12.698;2022-07-23T03:30:43;15.10;99.90
14210;DHT22;7188;56.070;12.698;2022-07-23T03:33:16;15.10;99.90
14210;DHT22;7188;56.070;12.698;2022-07-23T03:35:43;15.10;99.90
14210;DHT22;7188;56.070;12.698;2022-07-23T03:38:08;15.20;99.90
14210;DHT22;7188;56.070;12.698;2022-07-23T03:40:34;15.10;99.90
14210;DHT22;7188;56.070;12.698;2022-07-23T03:43:00;15.20;99.90
14210;DHT22;7188;56.070;12.698;2022-07-23T03:45:26;15.10;99.90
14210;DHT22;7188;56.070;12.698;2022-07-23T03:47:52;15.10;99.90
14210;DHT22;7188;56.070;12.698;2022-07-23T03:50:18;15.10;99.90
14210;DHT22;7188;56.070;12.698;2022-07-23T03:52:43;15.10;99.90
14210;DHT22;7188;56.070;12.698;2022-07-23T03:55:09;15.20;99.90
14210;DHT22;7188;56.070;12.698;2022-07-23T03:57:35;15.20;99.90
14210;DHT22;7188;56.070;12.698;2022-07-23T04:00:01;15.20;99.90
14210;DHT22;7188;56.070;12.698;2022-07-23T04:02:27;15.20;99.90
14210;DHT22;7188;56.070;12.698;2022-07-23T04:04:53;15.30;99.90
14210;DHT22;7188;56.070;12.698;2022-07-23T04:07:19;15.30;99.90
14210;DHT22;7188;56.070;12.698;2022-07-23T04:09:45;15.30;99.90
14210;DHT22;7188;56.070;12.698;2022-07-23T04:12:10;15.30;99.90
14210;DHT22;7188;56.070;12.698;2022-07-23T04:14:36;15.30;99.90
14210;DHT22;7188;56.070;12.698;2022-07-23T04:17:02;15.30;99.90
14210;DHT22;7188;56.070;12.698;2022-07-23T04:19:27;15.30;99.90
14210;DHT22;7188;56.070;12.698;2022-07-23T04:21:53;15.40;99.90
14210;DHT22;7188;56.070;12.698;2022-07-23T04:24:19;15.40;99.90
14210;DHT22;7188;56.070;12.698;2022-07-23T04:26:45;15.40;99.90
14210;DHT22;7188;56.070;12.698;2022-07-23T04:29:11;15.30;99.90
14210;DHT22;7188;56.070;12.698;2022-07-23T04:31:36;15.30;99.90
14210;DHT22;7188;56.070;12.698;2022-07-23T04:34:02;15.30;99.90
14210;DHT22;7188;56.070;12.698;2022-07-23T04:36:28;15.30;99.90
14210;DHT22;7188;56.070;12.698;2022-07-23T04:38:54;15.30;99.90
14210;DHT22;7188;56.070;12.698;2022-07-23T04:41:20;15.30;99.90
14210;DHT22;7188;56.070;12.698;2022-07-23T04:43:46;15.30;99.90
14210;DHT22;7188;56.070;12.698;2022-07-23T04:46:11;15.30;99.90
14210;DHT22;7188;56.070;12.698;2022-07-23T04:48:37;15.30;99.90
14210;DHT22;7188;56.070;12.698;2022-07-23T04:51:03;15.30;99.90
14210;DHT22;7188;56.070;12.698;2022-07-23T04:53:29;15.30;99.90
14210;DHT22;7188;56.070;12.698;2022-07-23T04:55:55;15.40;99.90
14210;DHT22;7188;56.070;12.698;2022-07-23T04:58:20;15.40;99.90
14210;DHT22;7188;56.070;12.698;2022-07-23T05:00:46;15.30;99.90
14210;DHT22;7188;56.070;12.698;2022-07-23T05:03:12;15.40;99.90
14210;DHT22;7188;56.070;12.698;2022-07-23T05:05:38;15.40;99.90
14210;DHT22;7188;56.070;12.698;2022-07-23T05:08:04;15.40;99.90
14210;DHT22;7188;56.070;12.698;2022-07-23T05:10:30;15.40;99.90
14210;DHT22;7188;56.070;12.698;2022-07-23T05:12:56;15.40;99.90
14210;DHT22;7188;56.070;12.698;2022-07-23T05:15:21;15.40;99.90
14210;DHT22;7188;56.070;12.698;2022-07-23T05:17:47;15.40;99.90
14210;DHT22;7188;56.070;12.698;2022-07-23T05:20:13;15.40;99.90
14210;DHT22;7188;56.070;12.698;2022-07-23T05:22:39;15.40;99.90
14210;DHT22;7188;56.070;12.698;2022-07-23T05:25:05;15.40;99.90
14210;DHT22;7188;56.070;12.698;2022-07-23T05:27:31;15.40;99.90
14210;DHT22;7188;56.070;12.698;2022-07-23T05:29:57;15.40;99.90
14210;DHT22;7188;56.070;12.698;2022-07-23T05:32:23;15.50;99.90
14210;DHT22;7188;56.070;12.698;2022-07-23T05:34:49;15.50;99.90
14210;DHT22;7188;56.070;12.698;2022-07-23T05:37:15;15.50;99.90
14210;DHT22;7188;56.070;12.698;2022-07-23T05:39:41;15.50;99.90
14210;DHT22;7188;56.070;12.698;2022-07-23T05:42:06;15.60;99.90
14210;DHT22;7188;56.070;12.698;2022-07-23T05:44:33;15.60;99.90
14210;DHT22;7188;56.070;12.698;2022-07-23T05:46:58;15.50;99.90
14210;DHT22;7188;56.070;12.698;2022-07-23T05:49:24;15.60;99.90
14210;DHT22;7188;56.070;12.698;2022-07-23T05:51:50;15.60;99.90
14210;DHT22;7188;56.070;12.698;2022-07-23T05:54:16;15.60;99.90
14210;DHT22;7188;56.070;12.698;2022-07-23T05:56:41;15.60;99.90
14210;DHT22;7188;56.070;12.698;2022-07-23T05:59:07;15.60;99.90
14210;DHT22;7188;56.070;12.698;2022-07-23T06:01:33;15.70;99.90
14210;DHT22;7188;56.070;12.698;2022-07-23T06:03:58;15.70;99.90
14210;DHT22;7188;56.070;12.698;2022-07-23T06:06:24;15.70;99.90
14210;DHT22;7188;56.070;12.698;2022-07-23T06:08:49;15.70;99.90
14210;DHT22;7188;56.070;12.698;2022-07-23T06:11:15;15.70;99.90
14210;DHT22;7188;56.070;12.698;2022-07-23T06:13:41;15.80;99.90
14210;DHT22;7188;56.070;12.698;2022-07-23T06:16:07;15.80;99.90
14210;DHT22;7188;56.070;12.698;2022-07-23T06:18:33;15.80;99.90
14210;DHT22;7188;56.070;12.698;2022-07-23T06:20:58;15.80;99.90
14210;DHT22;7188;56.070;12.698;2022-07-23T06:23:24;15.80;99.90
14210;DHT22;7188;56.070;12.698;2022-07-23T06:25:50;15.90;99.90
14210;DHT22;7188;56.070;12.698;2022-07-23T06:28:15;15.90;99.90
14210;DHT22;7188;56.070;12.698;2022-07-23T06:30:41;15.90;99.90
14210;DHT22;7188;56.070;12.698;2022-07-23T06:33:07;15.80;99.90
14210;DHT22;7188;56.070;12.698;2022-07-23T06:35:33;15.90;99.90
14210;DHT22;7188;56.070;12.698;2022-07-23T06:37:59;15.90;99.90
14210;DHT22;7188;56.070;12.698;2022-07-23T06:40:25;15.90;99.90
14210;DHT22;7188;56.070;12.698;2022-07-23T06:42:51;15.90;99.90
14210;DHT22;7188;56.070;12.698;2022-07-23T06:45:16;15.90;99.90
14210;DHT22;7188;56.070;12.698;2022-07-23T06:47:42;15.90;99.90
14210;DHT22;7188;56.070;12.698;2022-07-23T06:50:08;16.00;99.90
14210;DHT22;7188;56.070;12.698;2022-07-23T06:52:34;16.00;99.90
14210;DHT22;7188;56.070;12.698;2022-07-23T06:55:00;16.00;99.90
14210;DHT22;7188;56.070;12.698;2022-07-23T06:57:25;16.00;99.90
14210;DHT22;7188;56.070;12.698;2022-07-23T06:59:52;16.10;99.90
14210;DHT22;7188;56.070;12.698;2022-07-23T07:02:17;16.20;99.90
14210;DHT22;7188;56.070;12.698;2022-07-23T07:04:43;16.20;99.90
14210;DHT22;7188;56.070;12.698;2022-07-23T07:07:09;16.20;99.90
14210;DHT22;7188;56.070;12.698;2022-07-23T07:09:34;16.20;99.90
14210;DHT22;7188;56.070;12.698;2022-07-23T07:12:00;16.20;99.90
14210;DHT22;7188;56.070;12.698;2022-07-23T07:14:27;16.30;99.90
14210;DHT22;7188;56.070;12.698;2022-07-23T07:16:52;16.30;99.90
14210;DHT22;7188;56.070;12.698;2022-07-23T07:19:18;16.40;99.90
14210;DHT22;7188;56.070;12.698;2022-07-23T07:21:44;16.50;99.90
14210;DHT22;7188;56.070;12.698;2022-07-23T07:24:10;16.50;99.90
14210;DHT22;7188;56.070;12.698;2022-07-23T07:26:35;16.60;99.90
14210;DHT22;7188;56.070;12.698;2022-07-23T07:29:01;16.60;99.90
14210;DHT22;7188;56.070;12.698;2022-07-23T07:31:27;16.60;99.90
14210;DHT22;7188;56.070;12.698;2022-07-23T07:33:52;16.80;99.90
14210;DHT22;7188;56.070;12.698;2022-07-23T07:36:18;16.80;99.90
14210;DHT22;7188;56.070;12.698;2022-07-23T07:38:44;16.90;99.90
14210;DHT22;7188;56.070;12.698;2022-07-23T07:41:10;16.90;99.90
14210;DHT22;7188;56.070;12.698;2022-07-23T07:43:36;16.90;99.90
14210;DHT22;7188;56.070;12.698;2022-07-23T07:46:03;16.90;99.90
14210;DHT22;7188;56.070;12.698;2022-07-23T07:48:29;16.90;99.90
14210;DHT22;7188;56.070;12.698;2022-07-23T07:50:54;16.90;99.90
14210;DHT22;7188;56.070;12.698;2022-07-23T07:53:20;16.90;99.90
14210;DHT22;7188;56.070;12.698;2022-07-23T07:55:46;17.00;99.90
14210;DHT22;7188;56.070;12.698;2022-07-23T07:58:12;17.00;99.90
14210;DHT22;7188;56.070;12.698;2022-07-23T08:00:37;17.10;99.90
14210;DHT22;7188;56.070;12.698;2022-07-23T08:03:03;17.10;99.90
14210;DHT22;7188;56.070;12.698;2022-07-23T08:05:30;17.20;99.90
14210;DHT22;7188;56.070;12.698;2022-07-23T08:07:56;17.20;99.90
14210;DHT22;7188;56.070;12.698;2022-07-23T08:10:23;17.20;99.90
14210;DHT22;7188;56.070;12.698;2022-07-23T08:12:52;17.30;99.90
14210;DHT22;7188;56.070;12.698;2022-07-23T08:15:20;17.30;99.90
14210;DHT22;7188;56.070;12.698;2022-07-23T08:17:47;17.30;99.90
14210;DHT22;7188;56.070;12.698;2022-07-23T08:20:14;17.30;99.90
14210;DHT22;7188;56.070;12.698;2022-07-23T08:25:15;17.30;99.90
14210;DHT22;7188;56.070;12.698;2022-07-23T08:27:41;17.40;99.90
14210;DHT22;7188;56.070;12.698;2022-07-23T08:30:08;17.40;99.90
14210;DHT22;7188;56.070;12.698;2022-07-23T08:32:47;17.30;99.90
14210;DHT22;7188;56.070;12.698;2022-07-23T08:35:12;17.30;99.90
14210;DHT22;7188;56.070;12.698;2022-07-23T08:37:38;17.30;99.90
14210;DHT22;7188;56.070;12.698;2022-07-23T08:40:04;17.30;99.90
14210;DHT22;7188;56.070;12.698;2022-07-23T08:42:30;17.30;99.90
14210;DHT22;7188;56.070;12.698;2022-07-23T08:44:56;17.30;99.90
14210;DHT22;7188;56.070;12.698;2022-07-23T08:47:22;17.30;99.90
14210;DHT22;7188;56.070;12.698;2022-07-23T08:49:48;17.40;99.90
14210;DHT22;7188;56.070;12.698;2022-07-23T08:52:14;17.40;99.90
14210;DHT22;7188;56.070;12.698;2022-07-23T08:54:40;17.40;99.90
14210;DHT22;7188;56.070;12.698;2022-07-23T08:57:06;17.40;99.90
14210;DHT22;7188;56.070;12.698;2022-07-23T08:59:50;17.40;99.90
14210;DHT22;7188;56.070;12.698;2022-07-23T09:02:16;17.40;99.90
14210;DHT22;7188;56.070;12.698;2022-07-23T09:04:41;17.40;99.90
14210;DHT22;7188;56.070;12.698;2022-07-23T09:07:08;17.40;99.90
14210;DHT22;7188;56.070;12.698;2022-07-23T09:09:34;17.40;99.90
14210;DHT22;7188;56.070;12.698;2022-07-23T09:12:08;17.40;99.90
14210;DHT22;7188;56.070;12.698;2022-07-23T09:14:42;17.30;99.90
14210;DHT22;7188;56.070;12.698;2022-07-23T09:17:15;17.30;99.90
14210;DHT22;7188;56.070;12.698;2022-07-23T09:19:43;17.30;99.90
14210;DHT22;7188;56.070;12.698;2022-07-23T09:22:26;17.30;99.90
14210;DHT22;7188;56.070;12.698;2022-07-23T09:25:12;17.20;99.90
14210;DHT22;7188;56.070;12.698;2022-07-23T09:27:56;17.20;99.90
14210;DHT22;7188;56.070;12.698;2022-07-23T09:30:29;17.20;99.90
14210;DHT22;7188;56.070;12.698;2022-07-23T09:35:53;17.00;99.90
14210;DHT22;7188;56.070;12.698;2022-07-23T09:38:21;17.00;99.90
14210;DHT22;7188;56.070;12.698;2022-07-23T09:41:04;17.00;99.90
14210;DHT22;7188;56.070;12.698;2022-07-23T09:43:31;17.00;99.90
14210;DHT22;7188;56.070;12.698;2022-07-23T09:46:16;17.00;99.90
14210;DHT22;7188;56.070;12.698;2022-07-23T09:48:42;17.00;99.90
14210;DHT22;7188;56.070;12.698;2022-07-23T09:51:08;17.00;99.90
14210;DHT22;7188;56.070;12.698;2022-07-23T09:53:33;17.00;99.90
14210;DHT22;7188;56.070;12.698;2022-07-23T09:56:00;17.00;99.90
14210;DHT22;7188;56.070;12.698;2022-07-23T09:58:26;17.00;99.90
14210;DHT22;7188;56.070;12.698;2022-07-23T10:00:55;17.00;99.90
14210;DHT22;7188;56.070;12.698;2022-07-23T10:03:23;17.10;99.90
14210;DHT22;7188;56.070;12.698;2022-07-23T10:05:50;17.20;99.90
14210;DHT22;7188;56.070;12.698;2022-07-23T10:08:18;17.20;99.90
14210;DHT22;7188;56.070;12.698;2022-07-23T10:10:46;17.20;99.90
14210;DHT22;7188;56.070;12.698;2022-07-23T10:13:12;17.20;99.90
14210;DHT22;7188;56.070;12.698;2022-07-23T10:15:54;17.20;99.90
14210;DHT22;7188;56.070;12.698;2022-07-23T10:18:20;17.20;99.90
14210;DHT22;7188;56.070;12.698;2022-07-23T10:20:47;17.20;99.90
14210;DHT22;7188;56.070;12.698;2022-07-23T10:23:43;17.20;99.90
14210;DHT22;7188;56.070;12.698;2022-07-23T10:26:18;17.20;99.90
14210;DHT22;7188;56.070;12.698;2022-07-23T10:31:35;17.10;99.90
14210;DHT22;7188;56.070;12.698;2022-07-23T10:37:32;17.10;99.90
14210;DHT22;7188;56.070;12.698;2022-07-23T10:42:37;17.10;99.90
14210;DHT22;7188;56.070;12.698;2022-07-23T10:45:29;17.10;99.90
14210;DHT22;7188;56.070;12.698;2022-07-23T10:50:44;17.20;99.90
14210;DHT22;7188;56.070;12.698;2022-07-23T10:53:11;17.20;99.90
14210;DHT22;7188;56.070;12.698;2022-07-23T10:55:41;17.20;99.90
14210;DHT22;7188;56.070;12.698;2022-07-23T10:58:07;17.30;99.90
14210;DHT22;7188;56.070;12.698;2022-07-23T11:00:34;17.20;99.90
14210;DHT22;7188;56.070;12.698;2022-07-23T11:03:02;17.20;99.90
14210;DHT22;7188;56.070;12.698;2022-07-23T11:05:46;17.20;99.90
14210;DHT22;7188;56.070;12.698;2022-07-23T11:08:19;17.30;99.90
14210;DHT22;7188;56.070;12.698;2022-07-23T11:10:52;17.30;99.90
14210;DHT22;7188;56.070;12.698;2022-07-23T11:24:00;17.40;99.90
14210;DHT22;7188;56.070;12.698;2022-07-23T11:32:02;17.50;99.90
14210;DHT22;7188;56.070;12.698;2022-07-23T11:34:40;17.50;99.90
14210;DHT22;7188;56.070;12.698;2022-07-23T11:37:08;17.50;99.90
14210;DHT22;7188;56.070;12.698;2022-07-23T11:39:54;17.50;99.90
14210;DHT22;7188;56.070;12.698;2022-07-23T11:42:20;17.60;99.90
14210;DHT22;7188;56.070;12.698;2022-07-23T11:44:46;17.60;99.90
14210;DHT22;7188;56.070;12.698;2022-07-23T11:47:12;17.60;99.90
14210;DHT22;7188;56.070;12.698;2022-07-23T11:49:59;17.60;99.90
14210;DHT22;7188;56.070;12.698;2022-07-23T11:52:27;17.70;99.90
14210;DHT22;7188;56.070;12.698;2022-07-23T11:55:04;17.70;99.90
14210;DHT22;7188;56.070;12.698;2022-07-23T11:57:33;17.70;99.90
14210;DHT22;7188;56.070;12.698;2022-07-23T12:00:17;17.60;99.90
14210;DHT22;7188;56.070;12.698;2022-07-23T12:02:49;17.60;99.90
14210;DHT22;7188;56.070;12.698;2022-07-23T12:05:35;17.70;99.90
14210;DHT22;7188;56.070;12.698;2022-07-23T12:08:09;17.70;99.90
14210;DHT22;7188;56.070;12.698;2022-07-23T12:10:43;17.70;99.90
14210;DHT22;7188;56.070;12.698;2022-07-23T12:13:12;17.70;99.90
14210;DHT22;7188;56.070;12.698;2022-07-23T12:15:43;17.80;99.90
14210;DHT22;7188;56.070;12.698;2022-07-23T12:18:12;17.80;99.90
14210;DHT22;7188;56.070;12.698;2022-07-23T12:20:40;17.80;99.90
14210;DHT22;7188;56.070;12.698;2022-07-23T12:23:08;17.80;99.90
14210;DHT22;7188;56.070;12.698;2022-07-23T12:25:37;17.80;99.90
14210;DHT22;7188;56.070;12.698;2022-07-23T12:28:10;17.80;99.90
14210;DHT22;7188;56.070;12.698;2022-07-23T12:30:46;17.80;99.90
14210;DHT22;7188;56.070;12.698;2022-07-23T12:33:29;17.80;99.90
14210;DHT22;7188;56.070;12.698;2022-07-23T12:35:59;17.70;99.90
14210;DHT22;7188;56.070;12.698;2022-07-23T12:38:27;17.60;99.90
14210;DHT22;7188;56.070;12.698;2022-07-23T12:40:57;17.50;99.90
14210;DHT22;7188;56.070;12.698;2022-07-23T12:43:30;17.40;99.90
14210;DHT22;7188;56.070;12.698;2022-07-23T12:48:39;17.40;99.90
14210;DHT22;7188;56.070;12.698;2022-07-23T12:51:15;17.50;99.90
14210;DHT22;7188;56.070;12.698;2022-07-23T12:56:26;17.50;99.90
14210;DHT22;7188;56.070;12.698;2022-07-23T12:58:56;17.50;99.90
14210;DHT22;7188;56.070;12.698;2022-07-23T13:01:26;17.50;99.90
14210;DHT22;7188;56.070;12.698;2022-07-23T13:04:10;17.50;99.90
14210;DHT22;7188;56.070;12.698;2022-07-23T13:09:17;17.50;99.90
14210;DHT22;7188;56.070;12.698;2022-07-23T13:11:44;17.50;99.90
14210;DHT22;7188;56.070;12.698;2022-07-23T13:14:13;17.60;99.90
14210;DHT22;7188;56.070;12.698;2022-07-23T13:16:40;17.70;99.90
14210;DHT22;7188;56.070;12.698;2022-07-23T13:19:06;17.70;99.90
14210;DHT22;7188;56.070;12.698;2022-07-23T13:21:32;17.70;99.90
14210;DHT22;7188;56.070;12.698;2022-07-23T13:23:58;17.70;99.90
14210;DHT22;7188;56.070;12.698;2022-07-23T13:26:25;17.60;99.90
14210;DHT22;7188;56.070;12.698;2022-07-23T13:28:51;17.50;99.90
14210;DHT22;7188;56.070;12.698;2022-07-23T13:31:17;17.50;99.90
14210;DHT22;7188;56.070;12.698;2022-07-23T13:33:43;17.60;99.90
14210;DHT22;7188;56.070;12.698;2022-07-23T13:36:08;17.60;99.90
14210;DHT22;7188;56.070;12.698;2022-07-23T13:38:34;17.60;99.90
14210;DHT22;7188;56.070;12.698;2022-07-23T13:41:00;17.60;99.90
14210;DHT22;7188;56.070;12.698;2022-07-23T13:43:26;17.60;99.90
14210;DHT22;7188;56.070;12.698;2022-07-23T13:45:52;17.60;99.90
14210;DHT22;7188;56.070;12.698;2022-07-23T13:48:18;17.60;99.90
14210;DHT22;7188;56.070;12.698;2022-07-23T13:50:46;17.50;99.90
14210;DHT22;7188;56.070;12.698;2022-07-23T13:53:14;17.50;99.90
14210;DHT22;7188;56.070;12.698;2022-07-23T13:55:41;17.40;99.90
14210;DHT22;7188;56.070;12.698;2022-07-23T13:58:08;17.50;99.90
14210;DHT22;7188;56.070;12.698;2022-07-23T14:00:36;17.60;99.90
14210;DHT22;7188;56.070;12.698;2022-07-23T14:03:03;17.80;99.90
14210;DHT22;7188;56.070;12.698;2022-07-23T14:05:29;17.90;99.90
14210;DHT22;7188;56.070;12.698;2022-07-23T14:07:54;17.80;99.90
14210;DHT22;7188;56.070;12.698;2022-07-23T14:10:21;17.80;99.90
14210;DHT22;7188;56.070;12.698;2022-07-23T14:12:49;17.90;99.90
14210;DHT22;7188;56.070;12.698;2022-07-23T14:15:16;18.00;99.90
14210;DHT22;7188;56.070;12.698;2022-07-23T14:17:43;18.00;99.90
14210;DHT22;7188;56.070;12.698;2022-07-23T14:20:10;18.00;99.90
14210;DHT22;7188;56.070;12.698;2022-07-23T14:22:37;18.10;99.90
14210;DHT22;7188;56.070;12.698;2022-07-23T14:25:03;18.00;99.90
14210;DHT22;7188;56.070;12.698;2022-07-23T14:27:29;18.00;99.90
14210;DHT22;7188;56.070;12.698;2022-07-23T14:29:55;18.00;99.90
14210;DHT22;7188;56.070;12.698;2022-07-23T14:32:21;18.00;99.90
14210;DHT22;7188;56.070;12.698;2022-07-23T14:34:47;18.00;99.90
14210;DHT22;7188;56.070;12.698;2022-07-23T14:37:13;18.00;99.90
14210;DHT22;7188;56.070;12.698;2022-07-23T14:39:40;18.10;99.90
14210;DHT22;7188;56.070;12.698;2022-07-23T14:42:08;18.20;99.90
14210;DHT22;7188;56.070;12.698;2022-07-23T14:44:35;18.20;99.90
14210;DHT22;7188;56.070;12.698;2022-07-23T14:47:03;18.20;99.90
14210;DHT22;7188;56.070;12.698;2022-07-23T14:49:30;18.20;99.90
14210;DHT22;7188;56.070;12.698;2022-07-23T14:51:56;18.20;99.90
14210;DHT22;7188;56.070;12.698;2022-07-23T14:54:23;18.10;99.90
14210;DHT22;7188;56.070;12.698;2022-07-23T14:56:51;18.10;99.90
14210;DHT22;7188;56.070;12.698;2022-07-23T14:59:17;18.20;99.90
14210;DHT22;7188;56.070;12.698;2022-07-23T15:01:43;18.20;99.90
14210;DHT22;7188;56.070;12.698;2022-07-23T15:04:09;18.20;99.90
14210;DHT22;7188;56.070;12.698;2022-07-23T15:06:34;18.10;99.90
14210;DHT22;7188;56.070;12.698;2022-07-23T15:09:00;18.10;99.90
14210;DHT22;7188;56.070;12.698;2022-07-23T15:11:27;18.10;99.90
14210;DHT22;7188;56.070;12.698;2022-07-23T15:13:55;18.00;99.90
14210;DHT22;7188;56.070;12.698;2022-07-23T15:16:20;18.10;99.90
14210;DHT22;7188;56.070;12.698;2022-07-23T15:18:46;18.20;99.90
14210;DHT22;7188;56.070;12.698;2022-07-23T15:21:12;18.10;99.90
14210;DHT22;7188;56.070;12.698;2022-07-23T15:23:38;18.20;99.90
14210;DHT22;7188;56.070;12.698;2022-07-23T15:26:05;18.20;99.90
14210;DHT22;7188;56.070;12.698;2022-07-23T15:28:32;18.20;99.90
14210;DHT22;7188;56.070;12.698;2022-07-23T15:30:58;18.20;99.90
14210;DHT22;7188;56.070;12.698;2022-07-23T15:33:24;18.30;99.90
14210;DHT22;7188;56.070;12.698;2022-07-23T15:35:49;18.40;99.90
14210;DHT22;7188;56.070;12.698;2022-07-23T15:38:15;18.40;99.90
14210;DHT22;7188;56.070;12.698;2022-07-23T15:40:41;18.50;99.90
14210;DHT22;7188;56.070;12.698;2022-07-23T15:43:23;18.50;99.90
14210;DHT22;7188;56.070;12.698;2022-07-23T15:45:50;18.50;99.90
14210;DHT22;7188;56.070;12.698;2022-07-23T15:48:17;18.60;99.90
14210;DHT22;7188;56.070;12.698;2022-07-23T15:50:43;18.60;99.90
14210;DHT22;7188;56.070;12.698;2022-07-23T15:53:08;18.70;99.90
14210;DHT22;7188;56.070;12.698;2022-07-23T15:55:34;18.70;99.90
14210;DHT22;7188;56.070;12.698;2022-07-23T15:58:00;18.70;99.90
14210;DHT22;7188;56.070;12.698;2022-07-23T16:00:26;18.70;99.90
14210;DHT22;7188;56.070;12.698;2022-07-23T16:02:52;18.70;99.90
14210;DHT22;7188;56.070;12.698;2022-07-23T16:05:17;18.70;99.90
14210;DHT22;7188;56.070;12.698;2022-07-23T16:07:59;18.70;99.90
14210;DHT22;7188;56.070;12.698;2022-07-23T16:10:25;18.70;99.90
14210;DHT22;7188;56.070;12.698;2022-07-23T16:12:51;18.70;99.90